sensor_id;sensor_type;location;lat;lon;timestamp;P1;durP1;ratioP1;P2;durP2;ratioP2
37231;SDS011;23125;48.156;15.954;2023-11-18T00:00:22;5.00;;;2.92;;
37231;SDS011;23125;48.156;15.954;2023-11-18T00:02:50;4.95;;;2.83;;
37231;SDS011;23125;48.156;15.954;2023-11-18T00:05:16;4.93;;;2.85;;
37231;SDS011;23125;48.156;15.954;2023-11-18T00:07:43;7.75;;;3.42;;
37231;SDS011;23125;48.156;15.954;2023-11-18T00:10:09;4.50;;;2.55;;
37231;SDS011;23125;48.156;15.954;2023-11-18T00:12:38;4.97;;;2.78;;
37231;SDS011;23125;48.156;15.954;2023-11-18T00:15:06;4.78;;;2.55;;
37231;SDS011;23125;48.156;15.954;2023-11-18T00:17:37;5.25;;;2.78;;
37231;SDS011;23125;48.156;15.954;2023-11-18T00:20:03;4.32;;;2.30;;
37231;SDS011;23125;48.156;15.954;2023-11-18T00:22:39;3.88;;;2.40;;
37231;SDS011;23125;48.156;15.954;2023-11-18T00:25:06;5.13;;;2.78;;
37231;SDS011;23125;48.156;15.954;2023-11-18T00:27:39;4.38;;;2.75;;
37231;SDS011;23125;48.156;15.954;2023-11-18T00:30:05;4.43;;;2.75;;
37231;SDS011;23125;48.156;15.954;2023-11-18T00:32:36;5.30;;;2.40;;
37231;SDS011;23125;48.156;15.954;2023-11-18T00:35:03;4.18;;;2.20;;
37231;SDS011;23125;48.156;15.954;2023-11-18T00:37:30;4.40;;;2.75;;
37231;SDS011;23125;48.156;15.954;2023-11-18T00:39:56;4.18;;;2.63;;
37231;SDS011;23125;48.156;15.954;2023-11-18T00:42:22;8.27;;;3.88;;
37231;SDS011;23125;48.156;15.954;2023-11-18T00:44:48;5.22;;;2.65;;
37231;SDS011;23125;48.156;15.954;2023-11-18T00:47:14;6.15;;;2.92;;
37231;SDS011;23125;48.156;15.954;2023-11-18T00:49:40;3.58;;;2.05;;
37231;SDS011;23125;48.156;15.954;2023-11-18T00:52:06;3.92;;;2.55;;
37231;SDS011;23125;48.156;15.954;2023-11-18T00:54:32;4.40;;;2.53;;
37231;SDS011;23125;48.156;15.954;2023-11-18T00:56:59;3.65;;;2.30;;
37231;SDS011;23125;48.156;15.954;2023-11-18T00:59:25;4.13;;;2.20;;
37231;SDS011;23125;48.156;15.954;2023-11-18T01:01:52;4.25;;;2.30;;
37231;SDS011;23125;48.156;15.954;2023-11-18T01:04:18;3.00;;;1.90;;
37231;SDS011;23125;48.156;15.954;2023-11-18T01:06:45;4.20;;;2.42;;
37231;SDS011;23125;48.156;15.954;2023-11-18T01:09:12;3.30;;;1.88;;
37231;SDS011;23125;48.156;15.954;2023-11-18T01:11:38;2.72;;;2.10;;
37231;SDS011;23125;48.156;15.954;2023-11-18T01:14:04;4.47;;;2.35;;
37231;SDS011;23125;48.156;15.954;2023-11-18T01:16:30;4.78;;;2.10;;
37231;SDS011;23125;48.156;15.954;2023-11-18T01:18:55;5.50;;;2.25;;
37231;SDS011;23125;48.156;15.954;2023-11-18T01:21:21;4.80;;;2.15;;
37231;SDS011;23125;48.156;15.954;2023-11-18T01:23:48;5.03;;;2.75;;
37231;SDS011;23125;48.156;15.954;2023-11-18T01:26:14;3.05;;;2.15;;
37231;SDS011;23125;48.156;15.954;2023-11-18T01:28:41;4.45;;;2.30;;
37231;SDS011;23125;48.156;15.954;2023-11-18T01:31:09;3.00;;;2.20;;
37231;SDS011;23125;48.156;15.954;2023-11-18T01:33:35;5.40;;;2.65;;
37231;SDS011;23125;48.156;15.954;2023-11-18T01:36:02;5.00;;;2.70;;
37231;SDS011;23125;48.156;15.954;2023-11-18T01:38:29;6.50;;;2.63;;
37231;SDS011;23125;48.156;15.954;2023-11-18T01:40:56;3.25;;;2.38;;
37231;SDS011;23125;48.156;15.954;2023-11-18T01:43:22;4.45;;;2.33;;
37231;SDS011;23125;48.156;15.954;2023-11-18T01:45:48;5.72;;;2.83;;
37231;SDS011;23125;48.156;15.954;2023-11-18T01:48:14;4.25;;;2.20;;
37231;SDS011;23125;48.156;15.954;2023-11-18T01:50:41;4.43;;;2.63;;
37231;SDS011;23125;48.156;15.954;2023-11-18T01:53:10;4.18;;;2.78;;
37231;SDS011;23125;48.156;15.954;2023-11-18T01:55:39;6.65;;;2.90;;
37231;SDS011;23125;48.156;15.954;2023-11-18T01:58:06;3.60;;;2.70;;
37231;SDS011;23125;48.156;15.954;2023-11-18T02:00:36;4.50;;;2.90;;
37231;SDS011;23125;48.156;15.954;2023-11-18T02:03:04;5.47;;;3.17;;
37231;SDS011;23125;48.156;15.954;2023-11-18T02:05:31;4.85;;;2.40;;
37231;SDS011;23125;48.156;15.954;2023-11-18T02:07:58;3.53;;;2.58;;
37231;SDS011;23125;48.156;15.954;2023-11-18T02:10:26;4.53;;;2.65;;
37231;SDS011;23125;48.156;15.954;2023-11-18T02:15:27;6.03;;;3.90;;
37231;SDS011;23125;48.156;15.954;2023-11-18T02:17:57;4.65;;;2.92;;
37231;SDS011;23125;48.156;15.954;2023-11-18T02:20:23;4.70;;;2.90;;
37231;SDS011;23125;48.156;15.954;2023-11-18T02:22:51;5.32;;;2.75;;
37231;SDS011;23125;48.156;15.954;2023-11-18T02:25:17;4.95;;;3.05;;
37231;SDS011;23125;48.156;15.954;2023-11-18T02:27:44;5.97;;;3.28;;
37231;SDS011;23125;48.156;15.954;2023-11-18T02:30:11;5.00;;;3.47;;
37231;SDS011;23125;48.156;15.954;2023-11-18T02:32:55;6.18;;;3.55;;
37231;SDS011;23125;48.156;15.954;2023-11-18T02:35:52;4.78;;;3.30;;
37231;SDS011;23125;48.156;15.954;2023-11-18T02:38:27;6.25;;;3.47;;
37231;SDS011;23125;48.156;15.954;2023-11-18T02:41:02;5.13;;;3.50;;
37231;SDS011;23125;48.156;15.954;2023-11-18T02:43:35;6.18;;;3.60;;
37231;SDS011;23125;48.156;15.954;2023-11-18T02:46:03;5.13;;;2.80;;
37231;SDS011;23125;48.156;15.954;2023-11-18T02:48:32;5.57;;;3.53;;
37231;SDS011;23125;48.156;15.954;2023-11-18T02:51:00;5.57;;;3.42;;
37231;SDS011;23125;48.156;15.954;2023-11-18T02:53:27;5.25;;;3.55;;
37231;SDS011;23125;48.156;15.954;2023-11-18T02:55:53;5.80;;;3.42;;
37231;SDS011;23125;48.156;15.954;2023-11-18T02:58:19;5.78;;;3.55;;
37231;SDS011;23125;48.156;15.954;2023-11-18T03:00:45;4.65;;;3.20;;
37231;SDS011;23125;48.156;15.954;2023-11-18T03:03:11;5.45;;;3.90;;
37231;SDS011;23125;48.156;15.954;2023-11-18T03:05:37;6.72;;;3.55;;
37231;SDS011;23125;48.156;15.954;2023-11-18T03:08:04;8.27;;;3.88;;
37231;SDS011;23125;48.156;15.954;2023-11-18T03:10:31;6.07;;;4.20;;
37231;SDS011;23125;48.156;15.954;2023-11-18T03:13:00;6.78;;;3.70;;
37231;SDS011;23125;48.156;15.954;2023-11-18T03:15:27;8.82;;;3.83;;
37231;SDS011;23125;48.156;15.954;2023-11-18T03:17:54;5.95;;;3.83;;
37231;SDS011;23125;48.156;15.954;2023-11-18T03:20:20;7.18;;;4.32;;
37231;SDS011;23125;48.156;15.954;2023-11-18T03:22:49;8.02;;;3.88;;
37231;SDS011;23125;48.156;15.954;2023-11-18T03:25:18;6.00;;;4.30;;
37231;SDS011;23125;48.156;15.954;2023-11-18T03:27:47;6.82;;;4.03;;
37231;SDS011;23125;48.156;15.954;2023-11-18T03:30:13;5.53;;;3.83;;
37231;SDS011;23125;48.156;15.954;2023-11-18T03:32:39;6.57;;;4.07;;
37231;SDS011;23125;48.156;15.954;2023-11-18T03:35:06;6.95;;;4.43;;
37231;SDS011;23125;48.156;15.954;2023-11-18T03:37:34;6.70;;;4.43;;
37231;SDS011;23125;48.156;15.954;2023-11-18T03:42:37;5.38;;;3.80;;
37231;SDS011;23125;48.156;15.954;2023-11-18T03:45:03;6.63;;;4.18;;
37231;SDS011;23125;48.156;15.954;2023-11-18T03:47:30;9.10;;;4.45;;
37231;SDS011;23125;48.156;15.954;2023-11-18T03:49:56;8.43;;;6.22;;
37231;SDS011;23125;48.156;15.954;2023-11-18T03:52:23;7.57;;;4.97;;
37231;SDS011;23125;48.156;15.954;2023-11-18T03:54:49;8.05;;;5.80;;
37231;SDS011;23125;48.156;15.954;2023-11-18T03:57:15;10.27;;;5.43;;
37231;SDS011;23125;48.156;15.954;2023-11-18T03:59:41;6.43;;;5.22;;
37231;SDS011;23125;48.156;15.954;2023-11-18T04:02:07;9.65;;;4.82;;
37231;SDS011;23125;48.156;15.954;2023-11-18T04:04:38;8.43;;;5.70;;
37231;SDS011;23125;48.156;15.954;2023-11-18T04:07:04;6.65;;;4.28;;
37231;SDS011;23125;48.156;15.954;2023-11-18T04:09:32;7.32;;;4.18;;
37231;SDS011;23125;48.156;15.954;2023-11-18T04:11:58;7.70;;;4.85;;
37231;SDS011;23125;48.156;15.954;2023-11-18T04:14:24;9.30;;;5.40;;
37231;SDS011;23125;48.156;15.954;2023-11-18T04:16:51;11.25;;;5.68;;
37231;SDS011;23125;48.156;15.954;2023-11-18T04:19:17;7.90;;;4.88;;
37231;SDS011;23125;48.156;15.954;2023-11-18T04:21:43;7.60;;;4.75;;
37231;SDS011;23125;48.156;15.954;2023-11-18T04:24:13;5.63;;;3.33;;
37231;SDS011;23125;48.156;15.954;2023-11-18T04:26:40;4.60;;;3.47;;
37231;SDS011;23125;48.156;15.954;2023-11-18T04:29:06;5.00;;;3.13;;
37231;SDS011;23125;48.156;15.954;2023-11-18T04:31:32;4.70;;;3.20;;
37231;SDS011;23125;48.156;15.954;2023-11-18T04:33:59;4.25;;;3.00;;
37231;SDS011;23125;48.156;15.954;2023-11-18T04:36:25;5.57;;;3.17;;
37231;SDS011;23125;48.156;15.954;2023-11-18T04:38:52;3.95;;;2.58;;
37231;SDS011;23125;48.156;15.954;2023-11-18T04:41:18;6.15;;;3.33;;
37231;SDS011;23125;48.156;15.954;2023-11-18T04:43:44;5.18;;;3.33;;
37231;SDS011;23125;48.156;15.954;2023-11-18T04:46:11;4.78;;;3.28;;
37231;SDS011;23125;48.156;15.954;2023-11-18T04:48:37;5.18;;;3.25;;
37231;SDS011;23125;48.156;15.954;2023-11-18T04:51:02;4.78;;;3.03;;
37231;SDS011;23125;48.156;15.954;2023-11-18T04:53:29;4.05;;;2.65;;
37231;SDS011;23125;48.156;15.954;2023-11-18T04:55:55;5.72;;;2.85;;
37231;SDS011;23125;48.156;15.954;2023-11-18T04:58:21;3.28;;;2.42;;
37231;SDS011;23125;48.156;15.954;2023-11-18T05:00:46;5.50;;;2.78;;
37231;SDS011;23125;48.156;15.954;2023-11-18T05:03:13;5.18;;;3.20;;
37231;SDS011;23125;48.156;15.954;2023-11-18T05:05:41;4.43;;;3.40;;
37231;SDS011;23125;48.156;15.954;2023-11-18T05:08:07;5.03;;;2.92;;
37231;SDS011;23125;48.156;15.954;2023-11-18T05:10:33;4.32;;;2.92;;
37231;SDS011;23125;48.156;15.954;2023-11-18T05:13:03;5.72;;;3.03;;
37231;SDS011;23125;48.156;15.954;2023-11-18T05:15:29;5.35;;;3.35;;
37231;SDS011;23125;48.156;15.954;2023-11-18T05:17:56;5.15;;;2.88;;
37231;SDS011;23125;48.156;15.954;2023-11-18T05:20:22;7.20;;;3.00;;
37231;SDS011;23125;48.156;15.954;2023-11-18T05:22:48;5.03;;;3.10;;
37231;SDS011;23125;48.156;15.954;2023-11-18T05:25:14;3.88;;;2.53;;
37231;SDS011;23125;48.156;15.954;2023-11-18T05:27:40;4.75;;;2.55;;
37231;SDS011;23125;48.156;15.954;2023-11-18T05:30:07;4.90;;;2.80;;
37231;SDS011;23125;48.156;15.954;2023-11-18T05:32:34;4.30;;;2.70;;
37231;SDS011;23125;48.156;15.954;2023-11-18T05:35:01;7.15;;;3.10;;
37231;SDS011;23125;48.156;15.954;2023-11-18T05:37:30;4.32;;;2.88;;
37231;SDS011;23125;48.156;15.954;2023-11-18T05:40:04;4.97;;;2.95;;
37231;SDS011;23125;48.156;15.954;2023-11-18T05:42:35;5.80;;;3.70;;
37231;SDS011;23125;48.156;15.954;2023-11-18T05:45:02;4.88;;;3.40;;
37231;SDS011;23125;48.156;15.954;2023-11-18T05:47:29;5.72;;;3.75;;
37231;SDS011;23125;48.156;15.954;2023-11-18T05:49:56;5.88;;;3.50;;
37231;SDS011;23125;48.156;15.954;2023-11-18T05:52:22;3.63;;;2.70;;
37231;SDS011;23125;48.156;15.954;2023-11-18T05:54:48;5.90;;;3.42;;
37231;SDS011;23125;48.156;15.954;2023-11-18T05:57:15;8.98;;;4.40;;
37231;SDS011;23125;48.156;15.954;2023-11-18T06:02:10;5.32;;;3.30;;
37231;SDS011;23125;48.156;15.954;2023-11-18T06:04:45;9.05;;;4.90;;
37231;SDS011;23125;48.156;15.954;2023-11-18T06:07:12;8.73;;;6.18;;
37231;SDS011;23125;48.156;15.954;2023-11-18T06:09:39;6.32;;;3.92;;
37231;SDS011;23125;48.156;15.954;2023-11-18T06:12:07;4.60;;;3.20;;
37231;SDS011;23125;48.156;15.954;2023-11-18T06:14:38;5.90;;;3.72;;
37231;SDS011;23125;48.156;15.954;2023-11-18T06:17:04;5.83;;;3.77;;
37231;SDS011;23125;48.156;15.954;2023-11-18T06:19:33;6.60;;;3.72;;
37231;SDS011;23125;48.156;15.954;2023-11-18T06:21:59;5.22;;;3.60;;
37231;SDS011;23125;48.156;15.954;2023-11-18T06:24:25;5.45;;;3.67;;
37231;SDS011;23125;48.156;15.954;2023-11-18T06:26:51;6.15;;;3.22;;
37231;SDS011;23125;48.156;15.954;2023-11-18T06:29:17;5.00;;;3.10;;
37231;SDS011;23125;48.156;15.954;2023-11-18T06:31:44;7.13;;;4.45;;
37231;SDS011;23125;48.156;15.954;2023-11-18T06:34:09;5.15;;;3.33;;
37231;SDS011;23125;48.156;15.954;2023-11-18T06:36:38;6.28;;;4.25;;
37231;SDS011;23125;48.156;15.954;2023-11-18T06:39:03;9.98;;;5.47;;
37231;SDS011;23125;48.156;15.954;2023-11-18T06:41:32;14.45;;;7.45;;
37231;SDS011;23125;48.156;15.954;2023-11-18T06:44:03;8.68;;;5.10;;
37231;SDS011;23125;48.156;15.954;2023-11-18T06:46:37;6.22;;;4.40;;
37231;SDS011;23125;48.156;15.954;2023-11-18T06:49:05;8.63;;;5.80;;
37231;SDS011;23125;48.156;15.954;2023-11-18T06:51:33;8.02;;;4.80;;
37231;SDS011;23125;48.156;15.954;2023-11-18T06:54:00;7.07;;;4.50;;
37231;SDS011;23125;48.156;15.954;2023-11-18T06:56:39;6.97;;;4.45;;
37231;SDS011;23125;48.156;15.954;2023-11-18T06:59:08;8.23;;;4.75;;
37231;SDS011;23125;48.156;15.954;2023-11-18T07:04:06;8.65;;;4.43;;
37231;SDS011;23125;48.156;15.954;2023-11-18T07:06:34;6.05;;;3.75;;
37231;SDS011;23125;48.156;15.954;2023-11-18T07:09:03;6.40;;;3.63;;
37231;SDS011;23125;48.156;15.954;2023-11-18T07:11:41;7.07;;;3.35;;
37231;SDS011;23125;48.156;15.954;2023-11-18T07:14:07;5.28;;;3.53;;
37231;SDS011;23125;48.156;15.954;2023-11-18T07:16:38;5.72;;;3.90;;
37231;SDS011;23125;48.156;15.954;2023-11-18T07:19:05;5.35;;;3.83;;
37231;SDS011;23125;48.156;15.954;2023-11-18T07:21:31;6.93;;;3.78;;
37231;SDS011;23125;48.156;15.954;2023-11-18T07:23:58;4.35;;;3.55;;
37231;SDS011;23125;48.156;15.954;2023-11-18T07:26:25;4.40;;;2.92;;
37231;SDS011;23125;48.156;15.954;2023-11-18T07:28:51;5.38;;;2.92;;
37231;SDS011;23125;48.156;15.954;2023-11-18T07:31:17;6.03;;;3.45;;
37231;SDS011;23125;48.156;15.954;2023-11-18T07:33:44;5.85;;;3.53;;
37231;SDS011;23125;48.156;15.954;2023-11-18T07:36:15;4.82;;;2.97;;
37231;SDS011;23125;48.156;15.954;2023-11-18T07:38:41;4.90;;;3.20;;
37231;SDS011;23125;48.156;15.954;2023-11-18T07:41:07;4.53;;;3.50;;
37231;SDS011;23125;48.156;15.954;2023-11-18T07:43:35;8.60;;;3.40;;
37231;SDS011;23125;48.156;15.954;2023-11-18T07:46:02;4.88;;;3.63;;
37231;SDS011;23125;48.156;15.954;2023-11-18T07:48:28;6.78;;;3.72;;
37231;SDS011;23125;48.156;15.954;2023-11-18T07:50:56;4.68;;;3.60;;
37231;SDS011;23125;48.156;15.954;2023-11-18T07:53:22;6.00;;;4.22;;
37231;SDS011;23125;48.156;15.954;2023-11-18T07:55:48;6.88;;;3.40;;
37231;SDS011;23125;48.156;15.954;2023-11-18T07:58:15;7.97;;;3.78;;
37231;SDS011;23125;48.156;15.954;2023-11-18T08:00:43;5.88;;;3.50;;
37231;SDS011;23125;48.156;15.954;2023-11-18T08:03:13;5.80;;;3.67;;
37231;SDS011;23125;48.156;15.954;2023-11-18T08:05:42;5.10;;;3.42;;
37231;SDS011;23125;48.156;15.954;2023-11-18T08:08:10;6.22;;;3.55;;
37231;SDS011;23125;48.156;15.954;2023-11-18T08:10:37;6.45;;;3.63;;
37231;SDS011;23125;48.156;15.954;2023-11-18T08:13:04;5.13;;;3.42;;
37231;SDS011;23125;48.156;15.954;2023-11-18T08:15:37;3.88;;;2.80;;
37231;SDS011;23125;48.156;15.954;2023-11-18T08:18:05;5.00;;;3.13;;
37231;SDS011;23125;48.156;15.954;2023-11-18T08:20:31;4.28;;;3.20;;
37231;SDS011;23125;48.156;15.954;2023-11-18T08:22:58;5.25;;;3.65;;
37231;SDS011;23125;48.156;15.954;2023-11-18T08:25:24;6.32;;;3.42;;
37231;SDS011;23125;48.156;15.954;2023-11-18T08:27:51;8.77;;;4.50;;
37231;SDS011;23125;48.156;15.954;2023-11-18T08:30:17;7.10;;;3.95;;
37231;SDS011;23125;48.156;15.954;2023-11-18T08:32:44;7.03;;;4.07;;
37231;SDS011;23125;48.156;15.954;2023-11-18T08:35:11;5.60;;;3.95;;
37231;SDS011;23125;48.156;15.954;2023-11-18T08:37:39;4.82;;;3.40;;
37231;SDS011;23125;48.156;15.954;2023-11-18T08:40:07;7.00;;;3.72;;
37231;SDS011;23125;48.156;15.954;2023-11-18T08:42:46;5.75;;;3.65;;
37231;SDS011;23125;48.156;15.954;2023-11-18T08:45:18;8.02;;;4.13;;
37231;SDS011;23125;48.156;15.954;2023-11-18T08:47:47;4.80;;;3.58;;
37231;SDS011;23125;48.156;15.954;2023-11-18T08:50:14;6.22;;;4.43;;
37231;SDS011;23125;48.156;15.954;2023-11-18T08:52:42;6.93;;;4.18;;
37231;SDS011;23125;48.156;15.954;2023-11-18T08:55:15;7.78;;;4.25;;
37231;SDS011;23125;48.156;15.954;2023-11-18T08:58:00;8.05;;;4.00;;
37231;SDS011;23125;48.156;15.954;2023-11-18T09:00:30;7.82;;;3.80;;
37231;SDS011;23125;48.156;15.954;2023-11-18T09:03:13;6.03;;;4.10;;
37231;SDS011;23125;48.156;15.954;2023-11-18T09:05:50;6.95;;;3.88;;
37231;SDS011;23125;48.156;15.954;2023-11-18T09:08:26;7.47;;;3.95;;
37231;SDS011;23125;48.156;15.954;2023-11-18T09:11:04;6.43;;;3.65;;
37231;SDS011;23125;48.156;15.954;2023-11-18T09:13:32;5.13;;;3.50;;
37231;SDS011;23125;48.156;15.954;2023-11-18T09:18:29;6.45;;;4.18;;
37231;SDS011;23125;48.156;15.954;2023-11-18T09:20:58;4.82;;;3.88;;
37231;SDS011;23125;48.156;15.954;2023-11-18T09:23:26;6.03;;;3.58;;
37231;SDS011;23125;48.156;15.954;2023-11-18T09:25:54;7.32;;;3.60;;
37231;SDS011;23125;48.156;15.954;2023-11-18T09:28:20;5.43;;;3.60;;
37231;SDS011;23125;48.156;15.954;2023-11-18T09:30:49;4.53;;;3.60;;
37231;SDS011;23125;48.156;15.954;2023-11-18T09:33:21;7.15;;;3.85;;
37231;SDS011;23125;48.156;15.954;2023-11-18T09:35:58;5.57;;;3.67;;
37231;SDS011;23125;48.156;15.954;2023-11-18T09:41:01;5.95;;;3.95;;
37231;SDS011;23125;48.156;15.954;2023-11-18T09:43:36;5.75;;;3.53;;
37231;SDS011;23125;48.156;15.954;2023-11-18T09:51:51;6.40;;;4.10;;
37231;SDS011;23125;48.156;15.954;2023-11-18T09:54:31;7.22;;;3.97;;
37231;SDS011;23125;48.156;15.954;2023-11-18T09:57:14;4.70;;;3.67;;
37231;SDS011;23125;48.156;15.954;2023-11-18T10:00:04;7.20;;;3.70;;
37231;SDS011;23125;48.156;15.954;2023-11-18T10:02:48;25.30;;;9.88;;
37231;SDS011;23125;48.156;15.954;2023-11-18T10:07:49;5.68;;;3.60;;
37231;SDS011;23125;48.156;15.954;2023-11-18T10:10:16;5.80;;;3.60;;
37231;SDS011;23125;48.156;15.954;2023-11-18T10:12:49;7.00;;;3.72;;
37231;SDS011;23125;48.156;15.954;2023-11-18T10:15:23;5.35;;;3.70;;
37231;SDS011;23125;48.156;15.954;2023-11-18T10:17:51;5.95;;;3.75;;
37231;SDS011;23125;48.156;15.954;2023-11-18T10:23:13;6.28;;;3.58;;
37231;SDS011;23125;48.156;15.954;2023-11-18T10:28:22;11.88;;;5.47;;
37231;SDS011;23125;48.156;15.954;2023-11-18T10:30:49;14.63;;;6.70;;
37231;SDS011;23125;48.156;15.954;2023-11-18T10:33:16;16.67;;;7.70;;
37231;SDS011;23125;48.156;15.954;2023-11-18T10:35:49;5.20;;;3.35;;
37231;SDS011;23125;48.156;15.954;2023-11-18T10:38:16;6.32;;;4.38;;
37231;SDS011;23125;48.156;15.954;2023-11-18T10:40:43;6.22;;;3.65;;
37231;SDS011;23125;48.156;15.954;2023-11-18T10:43:10;5.85;;;3.83;;
37231;SDS011;23125;48.156;15.954;2023-11-18T10:45:36;5.95;;;3.42;;
37231;SDS011;23125;48.156;15.954;2023-11-18T10:48:06;5.55;;;3.50;;
37231;SDS011;23125;48.156;15.954;2023-11-18T10:50:33;5.60;;;3.72;;
37231;SDS011;23125;48.156;15.954;2023-11-18T10:52:59;5.10;;;3.33;;
37231;SDS011;23125;48.156;15.954;2023-11-18T10:55:37;10.85;;;6.00;;
37231;SDS011;23125;48.156;15.954;2023-11-18T10:58:05;7.63;;;3.70;;
37231;SDS011;23125;48.156;15.954;2023-11-18T11:00:47;5.28;;;3.53;;
37231;SDS011;23125;48.156;15.954;2023-11-18T11:03:21;6.68;;;3.90;;
37231;SDS011;23125;48.156;15.954;2023-11-18T11:05:50;4.18;;;3.45;;
37231;SDS011;23125;48.156;15.954;2023-11-18T11:08:19;5.13;;;3.47;;
37231;SDS011;23125;48.156;15.954;2023-11-18T11:10:46;4.53;;;3.08;;
37231;SDS011;23125;48.156;15.954;2023-11-18T11:13:16;5.47;;;3.80;;
37231;SDS011;23125;48.156;15.954;2023-11-18T11:15:43;5.28;;;3.45;;
37231;SDS011;23125;48.156;15.954;2023-11-18T11:18:12;4.43;;;3.13;;
37231;SDS011;23125;48.156;15.954;2023-11-18T11:28:58;4.88;;;3.40;;
37231;SDS011;23125;48.156;15.954;2023-11-18T11:31:37;5.80;;;3.80;;
37231;SDS011;23125;48.156;15.954;2023-11-18T11:36:48;5.07;;;3.40;;
37231;SDS011;23125;48.156;15.954;2023-11-18T11:39:16;5.38;;;3.17;;
37231;SDS011;23125;48.156;15.954;2023-11-18T11:41:51;4.63;;;2.90;;
37231;SDS011;23125;48.156;15.954;2023-11-18T11:44:21;6.85;;;3.30;;
37231;SDS011;23125;48.156;15.954;2023-11-18T11:46:55;5.43;;;3.05;;
37231;SDS011;23125;48.156;15.954;2023-11-18T11:49:26;6.97;;;3.50;;
37231;SDS011;23125;48.156;15.954;2023-11-18T11:52:03;4.95;;;2.90;;
37231;SDS011;23125;48.156;15.954;2023-11-18T11:55:05;4.82;;;3.30;;
37231;SDS011;23125;48.156;15.954;2023-11-18T11:57:51;3.65;;;2.97;;
37231;SDS011;23125;48.156;15.954;2023-11-18T12:00:23;7.38;;;3.70;;
37231;SDS011;23125;48.156;15.954;2023-11-18T12:02:51;7.82;;;4.22;;
37231;SDS011;23125;48.156;15.954;2023-11-18T12:05:24;9.73;;;4.63;;
37231;SDS011;23125;48.156;15.954;2023-11-18T12:07:52;4.50;;;3.15;;
37231;SDS011;23125;48.156;15.954;2023-11-18T12:10:21;6.65;;;3.90;;
37231;SDS011;23125;48.156;15.954;2023-11-18T12:13:09;7.85;;;3.67;;
37231;SDS011;23125;48.156;15.954;2023-11-18T12:15:53;6.03;;;4.28;;
37231;SDS011;23125;48.156;15.954;2023-11-18T12:18:29;3.42;;;2.63;;
37231;SDS011;23125;48.156;15.954;2023-11-18T12:20:59;5.13;;;2.55;;
37231;SDS011;23125;48.156;15.954;2023-11-18T12:23:29;3.80;;;2.05;;
37231;SDS011;23125;48.156;15.954;2023-11-18T12:25:59;4.70;;;2.33;;
37231;SDS011;23125;48.156;15.954;2023-11-18T12:28:29;3.58;;;2.53;;
37231;SDS011;23125;48.156;15.954;2023-11-18T12:31:03;4.22;;;2.80;;
37231;SDS011;23125;48.156;15.954;2023-11-18T12:41:46;5.00;;;2.83;;
37231;SDS011;23125;48.156;15.954;2023-11-18T12:47:04;3.65;;;2.60;;
37231;SDS011;23125;48.156;15.954;2023-11-18T12:49:44;3.78;;;2.88;;
37231;SDS011;23125;48.156;15.954;2023-11-18T12:52:15;4.20;;;2.60;;
37231;SDS011;23125;48.156;15.954;2023-11-18T12:54:44;4.72;;;2.95;;
37231;SDS011;23125;48.156;15.954;2023-11-18T12:57:16;4.97;;;3.10;;
37231;SDS011;23125;48.156;15.954;2023-11-18T12:59:43;16.88;;;8.02;;
37231;SDS011;23125;48.156;15.954;2023-11-18T13:02:09;14.82;;;7.65;;
37231;SDS011;23125;48.156;15.954;2023-11-18T13:04:47;37.55;;;16.33;;
37231;SDS011;23125;48.156;15.954;2023-11-18T13:09:43;20.70;;;8.27;;
37231;SDS011;23125;48.156;15.954;2023-11-18T13:12:11;4.32;;;2.95;;
37231;SDS011;23125;48.156;15.954;2023-11-18T13:14:43;5.72;;;3.15;;
37231;SDS011;23125;48.156;15.954;2023-11-18T13:17:11;2.10;;;1.90;;
37231;SDS011;23125;48.156;15.954;2023-11-18T13:19:41;2.72;;;1.80;;
37231;SDS011;23125;48.156;15.954;2023-11-18T13:22:09;2.92;;;2.00;;
37231;SDS011;23125;48.156;15.954;2023-11-18T13:24:45;6.28;;;2.80;;
37231;SDS011;23125;48.156;15.954;2023-11-18T13:27:15;3.83;;;1.77;;
37231;SDS011;23125;48.156;15.954;2023-11-18T13:29:46;3.38;;;2.17;;
37231;SDS011;23125;48.156;15.954;2023-11-18T13:32:15;5.95;;;2.65;;
37231;SDS011;23125;48.156;15.954;2023-11-18T13:34:43;3.30;;;2.40;;
37231;SDS011;23125;48.156;15.954;2023-11-18T13:37:09;2.35;;;1.45;;
37231;SDS011;23125;48.156;15.954;2023-11-18T13:39:42;2.80;;;2.13;;
37231;SDS011;23125;48.156;15.954;2023-11-18T13:44:47;1.85;;;1.23;;
37231;SDS011;23125;48.156;15.954;2023-11-18T13:47:17;2.70;;;1.30;;
37231;SDS011;23125;48.156;15.954;2023-11-18T13:49:44;2.45;;;1.40;;
37231;SDS011;23125;48.156;15.954;2023-11-18T13:52:12;2.28;;;1.30;;
37231;SDS011;23125;48.156;15.954;2023-11-18T13:54:42;2.95;;;2.03;;
37231;SDS011;23125;48.156;15.954;2023-11-18T13:57:10;3.63;;;1.80;;
37231;SDS011;23125;48.156;15.954;2023-11-18T13:59:39;2.97;;;1.80;;
37231;SDS011;23125;48.156;15.954;2023-11-18T14:02:08;2.53;;;1.60;;
37231;SDS011;23125;48.156;15.954;2023-11-18T14:04:35;3.53;;;1.90;;
37231;SDS011;23125;48.156;15.954;2023-11-18T14:07:03;2.13;;;1.30;;
37231;SDS011;23125;48.156;15.954;2023-11-18T14:09:33;2.63;;;1.75;;
37231;SDS011;23125;48.156;15.954;2023-11-18T14:12:05;2.47;;;1.67;;
37231;SDS011;23125;48.156;15.954;2023-11-18T14:14:33;2.83;;;1.80;;
37231;SDS011;23125;48.156;15.954;2023-11-18T14:16:59;3.13;;;2.00;;
37231;SDS011;23125;48.156;15.954;2023-11-18T14:19:26;3.67;;;2.67;;
37231;SDS011;23125;48.156;15.954;2023-11-18T14:21:55;4.93;;;3.03;;
37231;SDS011;23125;48.156;15.954;2023-11-18T14:24:21;3.83;;;2.40;;
37231;SDS011;23125;48.156;15.954;2023-11-18T14:26:55;3.03;;;2.22;;
37231;SDS011;23125;48.156;15.954;2023-11-18T14:29:22;4.45;;;2.55;;
37231;SDS011;23125;48.156;15.954;2023-11-18T14:31:48;4.82;;;2.42;;
37231;SDS011;23125;48.156;15.954;2023-11-18T14:34:14;3.20;;;2.80;;
37231;SDS011;23125;48.156;15.954;2023-11-18T14:36:41;6.63;;;3.30;;
37231;SDS011;23125;48.156;15.954;2023-11-18T14:39:10;4.70;;;2.80;;
37231;SDS011;23125;48.156;15.954;2023-11-18T14:41:39;4.20;;;2.28;;
37231;SDS011;23125;48.156;15.954;2023-11-18T14:44:05;3.33;;;2.22;;
37231;SDS011;23125;48.156;15.954;2023-11-18T14:46:35;2.87;;;2.30;;
37231;SDS011;23125;48.156;15.954;2023-11-18T14:49:04;3.65;;;2.50;;
37231;SDS011;23125;48.156;15.954;2023-11-18T14:51:35;3.83;;;2.33;;
37231;SDS011;23125;48.156;15.954;2023-11-18T14:54:01;3.33;;;2.40;;
37231;SDS011;23125;48.156;15.954;2023-11-18T14:56:27;8.00;;;4.57;;
37231;SDS011;23125;48.156;15.954;2023-11-18T14:58:53;21.58;;;9.98;;
37231;SDS011;23125;48.156;15.954;2023-11-18T15:01:19;23.75;;;11.38;;
37231;SDS011;23125;48.156;15.954;2023-11-18T15:03:45;19.30;;;8.60;;
37231;SDS011;23125;48.156;15.954;2023-11-18T15:06:11;20.27;;;9.18;;
37231;SDS011;23125;48.156;15.954;2023-11-18T15:08:37;5.40;;;3.40;;
37231;SDS011;23125;48.156;15.954;2023-11-18T15:11:06;5.25;;;2.50;;
37231;SDS011;23125;48.156;15.954;2023-11-18T15:13:32;8.98;;;4.18;;
37231;SDS011;23125;48.156;15.954;2023-11-18T15:15:58;11.45;;;6.50;;
37231;SDS011;23125;48.156;15.954;2023-11-18T15:18:24;16.67;;;7.88;;
37231;SDS011;23125;48.156;15.954;2023-11-18T15:20:50;14.45;;;7.40;;
37231;SDS011;23125;48.156;15.954;2023-11-18T15:23:17;8.68;;;5.40;;
37231;SDS011;23125;48.156;15.954;2023-11-18T15:25:52;5.60;;;3.50;;
37231;SDS011;23125;48.156;15.954;2023-11-18T15:28:19;8.10;;;4.90;;
37231;SDS011;23125;48.156;15.954;2023-11-18T15:30:45;14.70;;;9.10;;
37231;SDS011;23125;48.156;15.954;2023-11-18T15:33:11;4.03;;;2.92;;
37231;SDS011;23125;48.156;15.954;2023-11-18T15:35:40;9.02;;;5.80;;
37231;SDS011;23125;48.156;15.954;2023-11-18T15:38:06;5.45;;;4.05;;